createdAt,value
2019-03-31T00:00:08.035Z,10.57
2019-03-31T00:02:37.367Z,10.54
2019-03-31T00:05:06.657Z,10.56
2019-03-31T00:07:35.933Z,10.55
2019-03-31T00:10:08.170Z,10.53
2019-03-31T00:12:37.381Z,10.54
2019-03-31T00:15:08.512Z,10.53
2019-03-31T00:17:37.765Z,10.47
2019-03-31T00:20:08.054Z,10.40
2019-03-31T00:22:37.320Z,10.29
2019-03-31T00:25:06.908Z,10.22
2019-03-31T00:27:36.315Z,10.22
2019-03-31T00:30:06.499Z,10.18
2019-03-31T00:32:35.717Z,10.13
2019-03-31T00:35:04.970Z,10.13
2019-03-31T00:37:34.144Z,10.18
2019-03-31T00:40:04.355Z,10.16
2019-03-31T00:42:33.767Z,10.12
2019-03-31T00:45:03.103Z,10.14
2019-03-31T00:47:32.335Z,10.05
2019-03-31T00:50:01.539Z,9.98
2019-03-31T00:52:30.766Z,9.91
2019-03-31T00:54:59.914Z,9.91
2019-03-31T00:57:29.206Z,9.93
2019-03-31T00:59:58.618Z,9.90
2019-03-31T01:02:30.418Z,9.90
2019-03-31T01:05:00.010Z,9.80
2019-03-31T01:07:29.785Z,9.74
2019-03-31T01:09:59.681Z,9.74
2019-03-31T01:12:29.618Z,9.74
2019-03-31T01:14:59.053Z,9.76
2019-03-31T01:17:28.678Z,9.79
2019-03-31T01:19:59.763Z,9.79
2019-03-31T01:22:29.338Z,9.80
2019-03-31T01:24:58.578Z,9.80
2019-03-31T01:27:28.474Z,9.82
2019-03-31T01:29:57.666Z,9.76
2019-03-31T01:32:26.938Z,9.63
2019-03-31T01:34:56.162Z,9.54
2019-03-31T01:37:25.679Z,9.52
2019-03-31T01:39:55.184Z,9.52
2019-03-31T01:42:24.557Z,9.53
2019-03-31T01:44:53.829Z,9.47
2019-03-31T01:47:23.105Z,9.41
2019-03-31T01:49:52.632Z,9.40
2019-03-31T01:52:21.867Z,9.38
2019-03-31T01:54:51.116Z,9.36
2019-03-31T01:57:20.321Z,9.32
2019-03-31T01:59:49.701Z,9.28
2019-03-31T02:02:21.055Z,9.29
2019-03-31T02:04:50.308Z,9.28
2019-03-31T02:07:19.570Z,9.23
2019-03-31T02:09:48.729Z,9.24
2019-03-31T02:12:18.071Z,9.27
2019-03-31T02:14:47.351Z,9.25
2019-03-31T02:17:16.862Z,9.25
2019-03-31T02:19:46.015Z,9.24
2019-03-31T02:22:15.918Z,9.23
2019-03-31T02:24:45.067Z,9.20
2019-03-31T02:27:14.289Z,9.19
2019-03-31T02:29:43.474Z,9.20
2019-03-31T02:32:23.435Z,9.18
2019-03-31T02:34:43.531Z,9.16
2019-03-31T02:37:12.789Z,9.11
2019-03-31T02:39:41.942Z,9.10
2019-03-31T02:42:11.230Z,9.09
2019-03-31T02:44:40.555Z,9.08
2019-03-31T02:47:09.820Z,9.02
2019-03-31T02:49:39.143Z,9.05
2019-03-31T02:52:08.427Z,8.99
2019-03-31T02:54:37.627Z,8.93
2019-03-31T02:57:07.828Z,8.81
2019-03-31T02:59:37.785Z,8.70
2019-03-31T03:02:08.773Z,8.65
2019-03-31T03:04:39.176Z,8.65
2019-03-31T03:07:10.295Z,8.65
2019-03-31T03:09:42.101Z,8.60
2019-03-31T03:12:11.825Z,8.60
2019-03-31T03:14:41.170Z,8.54
2019-03-31T03:17:10.629Z,8.53
2019-03-31T03:19:39.821Z,8.50
2019-03-31T03:22:08.988Z,8.50
2019-03-31T03:24:38.088Z,8.50
2019-03-31T03:27:07.239Z,8.53
2019-03-31T03:29:36.421Z,8.57
2019-03-31T03:32:05.819Z,8.55
2019-03-31T03:34:35.244Z,8.56
2019-03-31T03:37:04.488Z,8.56
2019-03-31T03:39:33.642Z,8.60
2019-03-31T03:42:02.889Z,8.60
2019-03-31T03:44:32.388Z,8.50
2019-03-31T03:47:01.547Z,8.49
2019-03-31T03:49:30.762Z,8.49
2019-03-31T03:52:00.107Z,8.48
2019-03-31T03:54:29.495Z,8.50
2019-03-31T03:56:58.655Z,8.43
2019-03-31T03:59:27.899Z,8.43
2019-03-31T04:01:57.036Z,8.39
2019-03-31T04:04:26.188Z,8.31
2019-03-31T04:06:55.446Z,8.15
2019-03-31T04:09:24.666Z,8.14
2019-03-31T04:11:53.829Z,8.14
2019-03-31T04:14:23.075Z,8.18
2019-03-31T04:16:52.287Z,8.18
2019-03-31T04:19:21.515Z,8.20
2019-03-31T04:21:50.762Z,8.18
2019-03-31T04:24:20.071Z,8.20
2019-03-31T04:26:49.370Z,8.21
2019-03-31T04:29:18.549Z,8.25
2019-03-31T04:31:47.782Z,8.25
2019-03-31T04:34:16.998Z,8.15
2019-03-31T04:36:46.398Z,8.15
2019-03-31T04:39:15.590Z,8.08
2019-03-31T04:41:44.732Z,8.08
2019-03-31T04:44:14.056Z,8.14
2019-03-31T04:46:43.342Z,8.12
2019-03-31T04:49:12.508Z,8.12
2019-03-31T04:51:41.757Z,8.20
2019-03-31T04:54:10.853Z,8.31
2019-03-31T04:56:39.913Z,8.31
2019-03-31T04:59:09.158Z,8.50
2019-03-31T05:01:38.313Z,8.50
2019-03-31T05:04:07.455Z,8.58
2019-03-31T05:06:36.724Z,8.65
2019-03-31T05:09:06.532Z,8.80
2019-03-31T05:11:35.756Z,8.92
2019-03-31T05:14:05.181Z,9.03
2019-03-31T05:16:34.463Z,9.16
2019-03-31T05:19:03.859Z,9.25
2019-03-31T05:21:33.078Z,9.37
2019-03-31T05:24:02.233Z,9.51
2019-03-31T05:26:31.301Z,9.71
2019-03-31T05:29:02.701Z,9.91
2019-03-31T05:31:31.837Z,10.10
2019-03-31T05:34:00.983Z,10.25
2019-03-31T05:36:30.225Z,10.40
2019-03-31T05:38:59.349Z,10.58
2019-03-31T05:41:28.814Z,10.78
2019-03-31T05:44:05.612Z,11.02
2019-03-31T05:46:28.930Z,11.22
2019-03-31T05:48:58.012Z,11.38
2019-03-31T05:51:27.188Z,11.48
2019-03-31T05:53:56.351Z,11.61
2019-03-31T05:56:25.561Z,11.74
2019-03-31T05:58:54.840Z,11.95
2019-03-31T06:01:24.367Z,12.20
2019-03-31T06:03:53.526Z,12.37
2019-03-31T06:06:22.719Z,12.58
2019-03-31T06:08:51.989Z,12.80
2019-03-31T06:11:21.118Z,13.02
2019-03-31T06:13:50.332Z,13.18
2019-03-31T06:16:19.539Z,13.34
2019-03-31T06:18:48.612Z,13.51
2019-03-31T06:21:17.904Z,13.69
2019-03-31T06:23:46.975Z,13.99
2019-03-31T06:26:16.201Z,14.10
2019-03-31T06:28:45.406Z,14.26
2019-03-31T06:31:14.534Z,14.58
2019-03-31T06:33:43.788Z,14.82
2019-03-31T06:36:13.090Z,15.03
2019-03-31T06:38:42.194Z,15.34
2019-03-31T06:41:11.245Z,15.36
2019-03-31T06:43:40.505Z,15.71
2019-03-31T06:46:09.665Z,15.96
2019-03-31T06:48:38.804Z,16.15
2019-03-31T06:51:08.061Z,16.20
2019-03-31T06:53:37.290Z,16.05
2019-03-31T06:56:06.440Z,16.25
2019-03-31T06:58:35.712Z,16.41
2019-03-31T07:01:04.952Z,16.58
2019-03-31T07:03:34.315Z,16.85
2019-03-31T07:06:03.709Z,16.90
2019-03-31T07:08:32.862Z,17.09
2019-03-31T07:11:02.080Z,17.31
2019-03-31T07:13:31.334Z,17.21
2019-03-31T07:16:00.550Z,17.36
2019-03-31T07:18:29.844Z,17.46
2019-03-31T07:20:59.101Z,17.69
2019-03-31T07:23:28.261Z,18.09
2019-03-31T07:25:57.499Z,18.22
2019-03-31T07:28:26.724Z,18.16
2019-03-31T07:30:59.256Z,18.06
2019-03-31T07:33:27.132Z,18.79
2019-03-31T07:35:56.323Z,19.52
2019-03-31T07:38:38.403Z,19.93
2019-03-31T07:40:56.780Z,20.18
2019-03-31T07:43:26.237Z,20.34
2019-03-31T07:45:56.024Z,20.41
2019-03-31T07:48:25.529Z,20.58
2019-03-31T07:50:54.793Z,20.55
2019-03-31T07:53:24.009Z,20.52
2019-03-31T07:55:53.313Z,20.45
2019-03-31T07:58:22.592Z,20.45
2019-03-31T08:00:51.830Z,20.97
2019-03-31T08:03:21.189Z,21.35
2019-03-31T08:05:50.451Z,21.25
2019-03-31T08:08:19.756Z,20.78
2019-03-31T08:10:49.016Z,20.72
2019-03-31T08:13:18.190Z,20.77
2019-03-31T08:15:47.525Z,20.79
2019-03-31T08:18:16.743Z,20.94
2019-03-31T08:20:45.947Z,21.48
2019-03-31T08:23:15.372Z,21.86
2019-03-31T08:25:44.643Z,22.34
2019-03-31T08:28:13.900Z,22.32
2019-03-31T08:30:43.070Z,22.27
2019-03-31T08:33:12.221Z,22.78
2019-03-31T08:35:47.496Z,23.25
2019-03-31T08:38:12.508Z,23.51
2019-03-31T08:40:41.736Z,23.47
2019-03-31T08:43:10.930Z,23.59
2019-03-31T08:45:40.081Z,23.78
2019-03-31T08:48:09.277Z,23.08
2019-03-31T08:50:38.528Z,22.90
2019-03-31T08:53:07.709Z,22.89
2019-03-31T08:55:36.911Z,23.60
2019-03-31T08:58:06.171Z,24.16
2019-03-31T09:00:37.029Z,23.97
2019-03-31T09:03:06.242Z,23.77
2019-03-31T09:05:35.544Z,23.60
2019-03-31T09:08:04.771Z,24.38
2019-03-31T09:10:34.004Z,24.46
2019-03-31T09:13:03.264Z,24.19
2019-03-31T09:15:32.480Z,24.40
2019-03-31T09:18:01.740Z,24.73
2019-03-31T09:20:31.011Z,24.50
2019-03-31T09:23:00.235Z,24.19
2019-03-31T09:25:29.391Z,24.55
2019-03-31T09:27:58.631Z,25.06
2019-03-31T09:30:27.873Z,25.75
2019-03-31T09:32:57.059Z,25.31
2019-03-31T09:35:26.255Z,25.70
2019-03-31T09:37:55.437Z,24.99
2019-03-31T09:40:24.641Z,24.85
2019-03-31T09:42:53.963Z,25.05
2019-03-31T09:45:23.200Z,25.39
2019-03-31T09:47:52.483Z,25.58
2019-03-31T09:50:22.238Z,25.78
2019-03-31T09:52:51.454Z,26.25
2019-03-31T09:55:23.088Z,26.66
2019-03-31T09:57:51.711Z,26.42
2019-03-31T10:00:45.877Z,25.78
2019-03-31T10:03:15.309Z,25.58
2019-03-31T10:05:47.736Z,26.00
2019-03-31T10:08:15.664Z,25.07
2019-03-31T10:10:44.917Z,24.81
2019-03-31T10:13:14.274Z,24.35
2019-03-31T10:15:43.441Z,24.71
2019-03-31T10:18:12.706Z,25.23
2019-03-31T10:20:41.928Z,25.49
2019-03-31T10:23:11.068Z,25.97
2019-03-31T10:25:40.341Z,26.90
2019-03-31T10:28:09.598Z,27.25
2019-03-31T10:30:40.532Z,27.40
2019-03-31T10:33:09.794Z,27.19
2019-03-31T10:35:39.041Z,27.46
2019-03-31T10:38:08.376Z,26.84
2019-03-31T10:40:37.644Z,26.67
2019-03-31T10:43:06.867Z,27.67
2019-03-31T10:45:36.089Z,27.61
2019-03-31T10:48:19.221Z,27.79
2019-03-31T10:50:36.480Z,28.02
2019-03-31T10:53:05.699Z,27.66
2019-03-31T10:55:34.961Z,28.07
2019-03-31T10:58:04.493Z,28.12
2019-03-31T11:00:38.055Z,28.77
2019-03-31T11:03:09.328Z,29.51
2019-03-31T11:05:38.656Z,29.69
2019-03-31T11:08:07.870Z,29.97
2019-03-31T11:10:37.268Z,30.00
2019-03-31T11:13:06.696Z,29.98
2019-03-31T11:15:35.925Z,29.95
2019-03-31T11:18:05.972Z,29.80
2019-03-31T11:20:35.195Z,29.57
2019-03-31T11:23:08.889Z,30.15
2019-03-31T11:25:38.186Z,30.35
2019-03-31T11:28:07.357Z,30.76
2019-03-31T11:30:36.572Z,31.21
2019-03-31T11:33:07.651Z,30.49
2019-03-31T11:35:36.763Z,30.74
2019-03-31T11:38:06.060Z,31.00
2019-03-31T11:40:35.402Z,31.30
2019-03-31T11:43:04.665Z,30.93
2019-03-31T11:45:34.044Z,31.08
2019-03-31T11:48:03.375Z,31.24
2019-03-31T11:50:32.599Z,31.05
2019-03-31T11:53:01.771Z,30.89
2019-03-31T11:55:31.027Z,31.15
2019-03-31T11:58:00.287Z,31.30
2019-03-31T12:00:31.159Z,31.65
2019-03-31T12:03:00.279Z,32.15
2019-03-31T12:05:29.571Z,32.63
2019-03-31T12:07:58.799Z,31.64
2019-03-31T12:10:28.056Z,31.66
2019-03-31T12:12:57.281Z,31.91
2019-03-31T12:15:26.435Z,32.15
2019-03-31T12:17:55.786Z,32.26
2019-03-31T12:20:25.001Z,32.14
2019-03-31T12:22:54.163Z,31.52
2019-03-31T12:25:25.051Z,30.48
2019-03-31T12:27:54.130Z,30.30
2019-03-31T12:30:29.903Z,30.56
2019-03-31T12:32:59.412Z,30.94
2019-03-31T12:35:28.632Z,30.74
2019-03-31T12:37:57.881Z,31.37
2019-03-31T12:40:34.714Z,30.99
2019-03-31T12:43:04.633Z,30.62
2019-03-31T12:45:33.912Z,30.48
2019-03-31T12:48:03.291Z,30.87
2019-03-31T12:50:32.494Z,31.46
2019-03-31T12:53:01.719Z,31.58
2019-03-31T12:55:30.880Z,31.81
2019-03-31T12:58:00.128Z,31.51
2019-03-31T13:00:29.342Z,31.32
2019-03-31T13:02:58.588Z,30.74
2019-03-31T13:05:27.799Z,31.56
2019-03-31T13:07:57.160Z,31.72
2019-03-31T13:10:26.554Z,31.00
2019-03-31T13:12:55.750Z,31.13
2019-03-31T13:15:25.088Z,31.13
2019-03-31T13:17:54.321Z,31.40
2019-03-31T13:20:23.536Z,32.10
2019-03-31T13:22:52.759Z,32.38
2019-03-31T13:25:22.014Z,32.43
2019-03-31T13:27:51.167Z,32.21
2019-03-31T13:30:22.099Z,31.87
2019-03-31T13:32:51.468Z,31.43
2019-03-31T13:35:20.845Z,31.49
2019-03-31T13:37:50.045Z,32.02
2019-03-31T13:40:19.216Z,32.26
2019-03-31T13:42:48.345Z,32.95
2019-03-31T13:45:17.547Z,33.01
2019-03-31T13:47:46.707Z,32.03
2019-03-31T13:50:16.326Z,31.45
2019-03-31T13:52:45.547Z,31.68
2019-03-31T13:55:14.870Z,32.21
2019-03-31T13:57:46.950Z,32.27
2019-03-31T14:00:25.383Z,32.30
2019-03-31T14:02:49.971Z,32.77
2019-03-31T14:05:19.168Z,32.66
2019-03-31T14:07:48.423Z,32.80
2019-03-31T14:10:17.642Z,32.99
2019-03-31T14:12:46.931Z,32.65
2019-03-31T14:15:19.442Z,32.57
2019-03-31T14:17:47.331Z,32.58
2019-03-31T14:20:17.074Z,32.81
2019-03-31T14:22:46.206Z,32.53
2019-03-31T14:25:15.524Z,32.29
2019-03-31T14:27:44.863Z,32.11
2019-03-31T14:30:14.371Z,31.51
2019-03-31T14:32:43.590Z,31.58
2019-03-31T14:35:13.115Z,31.72
2019-03-31T14:37:42.831Z,32.26
2019-03-31T14:40:12.057Z,32.41
2019-03-31T14:42:41.363Z,32.39
2019-03-31T14:45:13.561Z,32.56
2019-03-31T14:47:42.897Z,32.42
2019-03-31T14:50:15.223Z,32.40
2019-03-31T14:52:44.484Z,31.74
2019-03-31T14:55:13.711Z,32.01
2019-03-31T14:57:42.837Z,32.12
2019-03-31T15:00:14.897Z,31.56
2019-03-31T15:02:42.953Z,31.27
2019-03-31T15:05:12.324Z,31.55
2019-03-31T15:07:41.563Z,31.48
2019-03-31T15:10:10.852Z,31.35
2019-03-31T15:12:40.099Z,31.45
2019-03-31T15:15:09.292Z,31.32
2019-03-31T15:17:38.523Z,31.27
2019-03-31T15:20:07.847Z,31.33
2019-03-31T15:22:37.135Z,31.41
2019-03-31T15:25:07.345Z,31.58
2019-03-31T15:27:36.583Z,32.03
2019-03-31T15:30:07.111Z,31.23
2019-03-31T15:32:36.317Z,31.21
2019-03-31T15:35:06.796Z,31.75
2019-03-31T15:37:35.987Z,31.72
2019-03-31T15:40:06.703Z,31.55
2019-03-31T15:42:35.963Z,31.75
2019-03-31T15:45:06.323Z,31.75
2019-03-31T15:47:35.601Z,32.15
2019-03-31T15:50:06.348Z,31.95
2019-03-31T15:52:35.584Z,32.23
2019-03-31T15:55:06.762Z,31.78
2019-03-31T15:57:35.995Z,31.14
2019-03-31T16:00:07.465Z,29.51
2019-03-31T16:02:36.615Z,29.42
2019-03-31T16:05:08.545Z,30.05
2019-03-31T16:07:37.741Z,30.54
2019-03-31T16:10:07.538Z,30.82
2019-03-31T16:12:37.760Z,30.86
2019-03-31T16:15:07.621Z,30.93
2019-03-31T16:17:36.762Z,30.53
2019-03-31T16:20:06.985Z,30.36
2019-03-31T16:22:36.246Z,29.84
2019-03-31T16:25:25.017Z,29.28
2019-03-31T16:27:54.344Z,29.49
2019-03-31T16:30:23.800Z,29.08
2019-03-31T16:32:53.034Z,28.56
2019-03-31T16:35:22.255Z,27.94
2019-03-31T16:37:51.503Z,26.90
2019-03-31T16:40:20.658Z,26.66
2019-03-31T16:42:49.929Z,26.27
2019-03-31T16:45:19.133Z,25.87
2019-03-31T16:47:48.330Z,25.51
2019-03-31T16:50:17.966Z,24.99
2019-03-31T16:52:47.183Z,24.56
2019-03-31T16:55:16.563Z,24.10
2019-03-31T16:57:45.685Z,23.43
2019-03-31T17:00:15.488Z,22.94
2019-03-31T17:02:44.738Z,22.56
2019-03-31T17:05:21.614Z,22.25
2019-03-31T17:07:47.864Z,21.89
2019-03-31T17:10:17.132Z,21.59
2019-03-31T17:12:46.317Z,21.28
2019-03-31T17:15:15.806Z,21.12
2019-03-31T17:17:45.166Z,20.94
2019-03-31T17:20:14.864Z,20.69
2019-03-31T17:22:44.089Z,20.49
2019-03-31T17:25:13.326Z,20.40
2019-03-31T17:27:42.534Z,20.25
2019-03-31T17:30:12.945Z,20.14
2019-03-31T17:32:42.190Z,20.02
2019-03-31T17:35:11.495Z,19.85
2019-03-31T17:37:40.684Z,19.71
2019-03-31T17:40:09.940Z,19.60
2019-03-31T17:42:39.146Z,19.52
2019-03-31T17:45:08.645Z,19.41
2019-03-31T17:47:37.898Z,19.30
2019-03-31T17:50:07.328Z,19.20
2019-03-31T17:52:36.535Z,19.09
2019-03-31T17:55:06.590Z,19.02
2019-03-31T17:57:35.732Z,18.97
2019-03-31T18:00:08.053Z,18.88
2019-03-31T18:02:37.346Z,18.79
2019-03-31T18:05:08.192Z,18.70
2019-03-31T18:07:37.474Z,18.63
2019-03-31T18:10:20.213Z,18.54
2019-03-31T18:12:38.421Z,18.48
2019-03-31T18:15:07.682Z,18.38
2019-03-31T18:17:36.863Z,18.29
2019-03-31T18:20:08.141Z,18.24
2019-03-31T18:22:37.437Z,18.23
2019-03-31T18:25:07.860Z,18.17
2019-03-31T18:27:37.077Z,18.13
2019-03-31T18:30:07.455Z,18.08
2019-03-31T18:32:36.691Z,18.06
2019-03-31T18:35:07.243Z,18.00
2019-03-31T18:37:36.617Z,17.97
2019-03-31T18:40:07.589Z,17.92
2019-03-31T18:42:36.890Z,17.90
2019-03-31T18:45:07.296Z,17.88
2019-03-31T18:47:36.645Z,17.70
2019-03-31T18:50:07.168Z,17.55
2019-03-31T18:52:36.422Z,17.36
2019-03-31T18:55:14.343Z,17.29
2019-03-31T18:57:48.203Z,17.18
2019-03-31T19:00:19.138Z,17.10
2019-03-31T19:02:50.066Z,17.05
2019-03-31T19:05:24.649Z,16.98
2019-03-31T19:07:58.510Z,16.95
2019-03-31T19:10:49.801Z,16.91
2019-03-31T19:13:27.120Z,16.81
2019-03-31T19:16:01.153Z,16.76
2019-03-31T19:18:32.283Z,16.70
2019-03-31T19:21:11.021Z,16.68
2019-03-31T19:23:40.843Z,16.58
2019-03-31T19:26:11.803Z,16.50
2019-03-31T19:28:42.691Z,16.44
2019-03-31T19:31:19.444Z,16.36
2019-03-31T19:34:06.432Z,16.30
2019-03-31T19:36:43.194Z,16.25
2019-03-31T19:39:19.936Z,16.16
2019-03-31T19:42:02.809Z,16.13
2019-03-31T19:44:33.678Z,16.06
2019-03-31T19:47:16.403Z,16.04
2019-03-31T19:49:47.271Z,16.00
2019-03-31T19:52:30.407Z,15.93
2019-03-31T19:55:17.355Z,15.82
2019-03-31T19:57:57.368Z,15.77
2019-03-31T20:00:34.398Z,15.66
2019-03-31T20:03:11.370Z,15.61
2019-03-31T20:05:58.908Z,15.52
2019-03-31T20:08:35.804Z,15.49
2019-03-31T20:11:22.687Z,15.43
2019-03-31T20:14:11.579Z,15.43
2019-03-31T20:17:00.772Z,15.35
2019-03-31T20:19:37.604Z,15.26
2019-03-31T20:22:08.509Z,15.11
2019-03-31T20:24:55.536Z,15.00
2019-03-31T20:27:32.005Z,14.92
2019-03-31T20:30:05.686Z,14.88
2019-03-31T20:32:36.555Z,14.85
2019-03-31T20:35:08.927Z,14.77
2019-03-31T20:37:42.703Z,14.70
2019-03-31T20:40:16.611Z,14.69
2019-03-31T20:42:50.084Z,14.66
2019-03-31T20:45:19.512Z,14.60
2019-03-31T20:47:48.669Z,14.55
2019-03-31T20:50:18.212Z,14.51
2019-03-31T20:52:47.575Z,14.42
2019-03-31T20:55:17.112Z,14.41
2019-03-31T20:57:46.478Z,14.35
2019-03-31T21:00:15.879Z,14.37
2019-03-31T21:02:45.112Z,14.34
2019-03-31T21:05:14.537Z,14.35
2019-03-31T21:07:43.899Z,14.28
2019-03-31T21:10:13.227Z,14.22
2019-03-31T21:12:42.411Z,14.18
2019-03-31T21:15:11.727Z,14.15
2019-03-31T21:17:41.004Z,14.10
2019-03-31T21:20:10.282Z,14.07
2019-03-31T21:22:39.554Z,14.06
2019-03-31T21:25:08.821Z,13.98
2019-03-31T21:27:38.185Z,13.95
2019-03-31T21:30:08.202Z,13.86
2019-03-31T21:32:37.517Z,13.79
2019-03-31T21:35:07.961Z,13.65
2019-03-31T21:37:37.392Z,13.55
2019-03-31T21:40:09.835Z,13.49
2019-03-31T21:42:39.253Z,13.43
2019-03-31T21:45:08.760Z,13.38
2019-03-31T21:47:37.952Z,13.34
2019-03-31T21:50:08.022Z,13.28
2019-03-31T21:52:37.234Z,13.26
2019-03-31T21:55:08.372Z,13.17
2019-03-31T21:57:37.634Z,13.13
2019-03-31T22:00:11.043Z,13.15
2019-03-31T22:02:40.238Z,13.14
2019-03-31T22:05:10.493Z,13.13
2019-03-31T22:07:39.784Z,13.14
2019-03-31T22:10:09.093Z,13.08
2019-03-31T22:12:38.374Z,13.08
2019-03-31T22:15:07.718Z,13.05
2019-03-31T22:17:36.937Z,13.04
2019-03-31T22:20:07.885Z,13.02
2019-03-31T22:22:37.197Z,12.99
2019-03-31T22:25:07.210Z,12.93
2019-03-31T22:27:36.507Z,12.88
2019-03-31T22:30:08.796Z,12.89
2019-03-31T22:32:38.039Z,12.85
2019-03-31T22:35:07.294Z,12.78
2019-03-31T22:37:36.468Z,12.80
2019-03-31T22:40:06.781Z,12.74
2019-03-31T22:42:36.087Z,12.71
2019-03-31T22:45:06.297Z,12.63
2019-03-31T22:47:35.525Z,12.57
2019-03-31T22:50:05.428Z,12.50
2019-03-31T22:52:34.624Z,12.47
2019-03-31T22:55:04.787Z,12.42
2019-03-31T22:57:34.059Z,12.37
2019-03-31T23:00:03.458Z,12.39
2019-03-31T23:02:32.611Z,12.41
2019-03-31T23:05:02.720Z,12.40
2019-03-31T23:07:31.957Z,12.40
2019-03-31T23:10:01.171Z,12.39
2019-03-31T23:12:30.354Z,12.40
2019-03-31T23:14:59.496Z,12.36
2019-03-31T23:17:28.716Z,12.33
2019-03-31T23:19:57.980Z,12.31
2019-03-31T23:22:27.785Z,12.33
2019-03-31T23:24:57.302Z,12.27
2019-03-31T23:27:26.571Z,12.28
2019-03-31T23:29:55.721Z,12.25
2019-03-31T23:32:24.963Z,12.22
2019-03-31T23:34:54.202Z,12.19
2019-03-31T23:37:23.358Z,12.15
2019-03-31T23:39:52.499Z,12.12
2019-03-31T23:42:21.702Z,12.10
2019-03-31T23:44:50.833Z,12.06
2019-03-31T23:47:19.970Z,12.01
2019-03-31T23:49:49.217Z,11.97
2019-03-31T23:52:18.351Z,11.95
2019-03-31T23:54:47.519Z,11.94
2019-03-31T23:57:16.836Z,11.92
2019-03-31T23:59:45.980Z,11.92
